TAF and METAR

Decoding for American and Canadian METARs and TAFs is not fully implemented.

Could not understand the following METAR

KNXP 270556Z AUTO 00000KT 10SM CLR 09/M08 A3039 RMK AO2 SLP273 T00891083 10189 20083 53006

TAF for Twentynine Palms

TAF KNXP 2703/2803 VRB06KT 9999 SKC QNH3035INS AUTOMATED SENSOR METWATCH 2703 TIL 2803 T06/2713Z T19/2721Z

between 27. februar 2020 04:00 - 28. februar 2020 04:00

wind 6 knots from various directions visibility > 10km
Twentynine Palms in United States of America at 626m

Latest 5 airports